sensor_id;sensor_type;location;lat;lon;timestamp;P1;durP1;ratioP1;P2;durP2;ratioP2
70078;SDS011;57451;52.496;13.456;2023-08-12T00:00:02;7.18;;;5.03;;
70078;SDS011;57451;52.496;13.456;2023-08-12T00:02:40;9.55;;;5.78;;
70078;SDS011;57451;52.496;13.456;2023-08-12T00:05:08;9.07;;;5.40;;
70078;SDS011;57451;52.496;13.456;2023-08-12T00:07:39;9.25;;;5.20;;
70078;SDS011;57451;52.496;13.456;2023-08-12T00:10:10;6.93;;;5.22;;
70078;SDS011;57451;52.496;13.456;2023-08-12T00:12:38;9.00;;;5.60;;
70078;SDS011;57451;52.496;13.456;2023-08-12T00:15:07;9.13;;;5.45;;
70078;SDS011;57451;52.496;13.456;2023-08-12T00:17:35;7.30;;;5.73;;
70078;SDS011;57451;52.496;13.456;2023-08-12T00:20:04;8.98;;;5.03;;
70078;SDS011;57451;52.496;13.456;2023-08-12T00:22:33;7.05;;;5.15;;
70078;SDS011;57451;52.496;13.456;2023-08-12T00:25:02;8.27;;;5.32;;
70078;SDS011;57451;52.496;13.456;2023-08-12T00:27:30;10.05;;;5.30;;
70078;SDS011;57451;52.496;13.456;2023-08-12T00:29:58;7.37;;;5.27;;
70078;SDS011;57451;52.496;13.456;2023-08-12T00:32:25;9.10;;;5.50;;
70078;SDS011;57451;52.496;13.456;2023-08-12T00:34:52;10.82;;;5.75;;
70078;SDS011;57451;52.496;13.456;2023-08-12T00:37:20;8.25;;;5.47;;
70078;SDS011;57451;52.496;13.456;2023-08-12T00:39:47;8.05;;;5.63;;
70078;SDS011;57451;52.496;13.456;2023-08-12T00:42:16;9.07;;;5.60;;
70078;SDS011;57451;52.496;13.456;2023-08-12T00:44:43;10.35;;;5.65;;
70078;SDS011;57451;52.496;13.456;2023-08-12T00:47:11;8.13;;;5.18;;
70078;SDS011;57451;52.496;13.456;2023-08-12T00:49:39;9.32;;;5.35;;
70078;SDS011;57451;52.496;13.456;2023-08-12T00:52:07;8.43;;;5.43;;
70078;SDS011;57451;52.496;13.456;2023-08-12T00:54:34;8.57;;;5.20;;
70078;SDS011;57451;52.496;13.456;2023-08-12T00:57:02;7.95;;;5.03;;
70078;SDS011;57451;52.496;13.456;2023-08-12T00:59:31;7.38;;;5.25;;
70078;SDS011;57451;52.496;13.456;2023-08-12T01:02:00;8.25;;;5.25;;
70078;SDS011;57451;52.496;13.456;2023-08-12T01:04:29;9.02;;;5.80;;
70078;SDS011;57451;52.496;13.456;2023-08-12T01:06:56;7.90;;;5.33;;
70078;SDS011;57451;52.496;13.456;2023-08-12T01:09:24;8.05;;;5.35;;
70078;SDS011;57451;52.496;13.456;2023-08-12T01:11:55;8.38;;;5.35;;
70078;SDS011;57451;52.496;13.456;2023-08-12T01:14:30;8.68;;;5.40;;
70078;SDS011;57451;52.496;13.456;2023-08-12T01:17:03;8.80;;;5.53;;
70078;SDS011;57451;52.496;13.456;2023-08-12T01:19:34;10.50;;;5.53;;
70078;SDS011;57451;52.496;13.456;2023-08-12T01:22:04;7.93;;;5.30;;
70078;SDS011;57451;52.496;13.456;2023-08-12T01:24:35;7.50;;;5.32;;
70078;SDS011;57451;52.496;13.456;2023-08-12T01:27:04;9.02;;;5.00;;
70078;SDS011;57451;52.496;13.456;2023-08-12T01:29:32;7.20;;;5.18;;
70078;SDS011;57451;52.496;13.456;2023-08-12T01:32:04;7.43;;;5.20;;
70078;SDS011;57451;52.496;13.456;2023-08-12T01:34:38;7.60;;;5.57;;
70078;SDS011;57451;52.496;13.456;2023-08-12T01:37:10;8.00;;;5.07;;
70078;SDS011;57451;52.496;13.456;2023-08-12T01:39:41;8.60;;;5.32;;
70078;SDS011;57451;52.496;13.456;2023-08-12T01:42:12;6.20;;;5.00;;
70078;SDS011;57451;52.496;13.456;2023-08-12T01:44:41;7.47;;;5.30;;
70078;SDS011;57451;52.496;13.456;2023-08-12T01:47:09;6.93;;;5.10;;
70078;SDS011;57451;52.496;13.456;2023-08-12T01:49:37;7.97;;;5.38;;
70078;SDS011;57451;52.496;13.456;2023-08-12T01:52:04;7.80;;;5.30;;
70078;SDS011;57451;52.496;13.456;2023-08-12T01:54:32;9.70;;;5.40;;
70078;SDS011;57451;52.496;13.456;2023-08-12T01:57:03;7.77;;;5.23;;
70078;SDS011;57451;52.496;13.456;2023-08-12T01:59:32;8.60;;;5.10;;
70078;SDS011;57451;52.496;13.456;2023-08-12T02:01:59;7.63;;;5.40;;
70078;SDS011;57451;52.496;13.456;2023-08-12T02:04:27;9.05;;;5.30;;
70078;SDS011;57451;52.496;13.456;2023-08-12T02:06:55;10.23;;;5.35;;
70078;SDS011;57451;52.496;13.456;2023-08-12T02:09:22;7.77;;;5.43;;
70078;SDS011;57451;52.496;13.456;2023-08-12T02:11:50;8.45;;;5.50;;
70078;SDS011;57451;52.496;13.456;2023-08-12T02:14:19;7.30;;;5.53;;
70078;SDS011;57451;52.496;13.456;2023-08-12T02:16:46;8.27;;;5.63;;
70078;SDS011;57451;52.496;13.456;2023-08-12T02:19:13;9.20;;;5.65;;
70078;SDS011;57451;52.496;13.456;2023-08-12T02:21:41;8.70;;;5.67;;
70078;SDS011;57451;52.496;13.456;2023-08-12T02:24:09;9.10;;;5.65;;
70078;SDS011;57451;52.496;13.456;2023-08-12T02:26:37;8.13;;;5.70;;
70078;SDS011;57451;52.496;13.456;2023-08-12T02:29:04;9.68;;;5.63;;
70078;SDS011;57451;52.496;13.456;2023-08-12T02:31:34;9.20;;;6.22;;
70078;SDS011;57451;52.496;13.456;2023-08-12T02:34:01;8.17;;;5.43;;
70078;SDS011;57451;52.496;13.456;2023-08-12T02:36:29;9.60;;;5.80;;
70078;SDS011;57451;52.496;13.456;2023-08-12T02:38:56;9.27;;;6.13;;
70078;SDS011;57451;52.496;13.456;2023-08-12T02:41:23;11.00;;;5.90;;
70078;SDS011;57451;52.496;13.456;2023-08-12T02:43:51;8.18;;;6.22;;
70078;SDS011;57451;52.496;13.456;2023-08-12T02:46:18;9.37;;;5.53;;
70078;SDS011;57451;52.496;13.456;2023-08-12T02:48:47;13.90;;;5.80;;
70078;SDS011;57451;52.496;13.456;2023-08-12T02:51:14;9.65;;;6.03;;
70078;SDS011;57451;52.496;13.456;2023-08-12T02:53:42;9.57;;;5.43;;
70078;SDS011;57451;52.496;13.456;2023-08-12T02:56:09;9.02;;;6.05;;
70078;SDS011;57451;52.496;13.456;2023-08-12T02:58:36;7.53;;;5.57;;
70078;SDS011;57451;52.496;13.456;2023-08-12T03:01:04;9.38;;;5.80;;
70078;SDS011;57451;52.496;13.456;2023-08-12T03:03:32;9.32;;;6.10;;
70078;SDS011;57451;52.496;13.456;2023-08-12T03:06:01;10.25;;;5.88;;
70078;SDS011;57451;52.496;13.456;2023-08-12T03:08:29;9.02;;;5.53;;
70078;SDS011;57451;52.496;13.456;2023-08-12T03:11:00;8.50;;;6.10;;
70078;SDS011;57451;52.496;13.456;2023-08-12T03:13:28;9.18;;;5.55;;
70078;SDS011;57451;52.496;13.456;2023-08-12T03:15:56;9.30;;;5.93;;
70078;SDS011;57451;52.496;13.456;2023-08-12T03:18:25;8.52;;;6.15;;
70078;SDS011;57451;52.496;13.456;2023-08-12T03:20:52;9.95;;;6.05;;
70078;SDS011;57451;52.496;13.456;2023-08-12T03:23:24;8.63;;;5.87;;
70078;SDS011;57451;52.496;13.456;2023-08-12T03:25:51;7.50;;;5.85;;
70078;SDS011;57451;52.496;13.456;2023-08-12T03:28:19;8.68;;;5.50;;
70078;SDS011;57451;52.496;13.456;2023-08-12T03:30:49;8.52;;;5.72;;
70078;SDS011;57451;52.496;13.456;2023-08-12T03:33:20;9.93;;;5.93;;
70078;SDS011;57451;52.496;13.456;2023-08-12T03:35:48;9.70;;;5.90;;
70078;SDS011;57451;52.496;13.456;2023-08-12T03:38:17;8.77;;;5.50;;
70078;SDS011;57451;52.496;13.456;2023-08-12T03:40:46;9.90;;;5.70;;
70078;SDS011;57451;52.496;13.456;2023-08-12T03:43:16;8.68;;;5.70;;
70078;SDS011;57451;52.496;13.456;2023-08-12T03:45:45;7.85;;;5.82;;
70078;SDS011;57451;52.496;13.456;2023-08-12T03:48:15;8.40;;;5.60;;
70078;SDS011;57451;52.496;13.456;2023-08-12T03:50:42;8.43;;;5.95;;
70078;SDS011;57451;52.496;13.456;2023-08-12T03:53:12;8.35;;;5.50;;
70078;SDS011;57451;52.496;13.456;2023-08-12T03:55:39;7.68;;;5.75;;
70078;SDS011;57451;52.496;13.456;2023-08-12T03:58:10;7.93;;;5.90;;
70078;SDS011;57451;52.496;13.456;2023-08-12T04:00:40;8.97;;;5.70;;
70078;SDS011;57451;52.496;13.456;2023-08-12T04:03:09;9.88;;;6.10;;
70078;SDS011;57451;52.496;13.456;2023-08-12T04:05:37;7.63;;;6.10;;
70078;SDS011;57451;52.496;13.456;2023-08-12T04:08:04;8.23;;;5.95;;
70078;SDS011;57451;52.496;13.456;2023-08-12T04:10:32;9.27;;;6.20;;
70078;SDS011;57451;52.496;13.456;2023-08-12T04:12:59;10.17;;;5.93;;
70078;SDS011;57451;52.496;13.456;2023-08-12T04:15:28;7.18;;;5.85;;
70078;SDS011;57451;52.496;13.456;2023-08-12T04:17:55;8.65;;;6.15;;
70078;SDS011;57451;52.496;13.456;2023-08-12T04:20:23;9.25;;;6.47;;
70078;SDS011;57451;52.496;13.456;2023-08-12T04:22:51;9.57;;;5.97;;
70078;SDS011;57451;52.496;13.456;2023-08-12T04:25:18;8.73;;;6.00;;
70078;SDS011;57451;52.496;13.456;2023-08-12T04:27:46;11.18;;;5.85;;
70078;SDS011;57451;52.496;13.456;2023-08-12T04:30:15;9.45;;;6.10;;
70078;SDS011;57451;52.496;13.456;2023-08-12T04:32:44;8.57;;;5.45;;
70078;SDS011;57451;52.496;13.456;2023-08-12T04:35:12;8.77;;;6.25;;
70078;SDS011;57451;52.496;13.456;2023-08-12T04:37:40;9.07;;;6.10;;
70078;SDS011;57451;52.496;13.456;2023-08-12T04:40:08;7.90;;;6.00;;
70078;SDS011;57451;52.496;13.456;2023-08-12T04:42:36;8.13;;;5.80;;
70078;SDS011;57451;52.496;13.456;2023-08-12T04:45:05;8.77;;;6.30;;
70078;SDS011;57451;52.496;13.456;2023-08-12T04:47:34;8.02;;;5.60;;
70078;SDS011;57451;52.496;13.456;2023-08-12T04:50:03;8.27;;;6.13;;
70078;SDS011;57451;52.496;13.456;2023-08-12T04:52:31;7.53;;;5.68;;
70078;SDS011;57451;52.496;13.456;2023-08-12T04:54:58;8.52;;;5.25;;
70078;SDS011;57451;52.496;13.456;2023-08-12T04:57:26;9.88;;;6.20;;
70078;SDS011;57451;52.496;13.456;2023-08-12T04:59:54;7.50;;;5.60;;
70078;SDS011;57451;52.496;13.456;2023-08-12T05:02:22;7.10;;;5.70;;
70078;SDS011;57451;52.496;13.456;2023-08-12T05:04:51;7.22;;;5.07;;
70078;SDS011;57451;52.496;13.456;2023-08-12T05:07:22;7.97;;;5.50;;
70078;SDS011;57451;52.496;13.456;2023-08-12T05:09:49;7.40;;;5.53;;
70078;SDS011;57451;52.496;13.456;2023-08-12T05:12:18;8.30;;;5.38;;
70078;SDS011;57451;52.496;13.456;2023-08-12T05:14:45;8.30;;;5.77;;
70078;SDS011;57451;52.496;13.456;2023-08-12T05:17:13;6.78;;;5.10;;
70078;SDS011;57451;52.496;13.456;2023-08-12T05:19:41;6.57;;;4.93;;
70078;SDS011;57451;52.496;13.456;2023-08-12T05:22:10;7.60;;;5.32;;
70078;SDS011;57451;52.496;13.456;2023-08-12T05:24:39;7.82;;;5.53;;
70078;SDS011;57451;52.496;13.456;2023-08-12T05:27:06;10.67;;;5.27;;
70078;SDS011;57451;52.496;13.456;2023-08-12T05:29:34;8.05;;;5.10;;
70078;SDS011;57451;52.496;13.456;2023-08-12T05:32:01;8.48;;;5.28;;
70078;SDS011;57451;52.496;13.456;2023-08-12T05:34:28;8.13;;;5.22;;
70078;SDS011;57451;52.496;13.456;2023-08-12T05:36:56;7.47;;;4.90;;
70078;SDS011;57451;52.496;13.456;2023-08-12T05:39:23;9.37;;;4.57;;
70078;SDS011;57451;52.496;13.456;2023-08-12T05:41:52;6.63;;;5.15;;
70078;SDS011;57451;52.496;13.456;2023-08-12T05:44:19;7.05;;;4.85;;
70078;SDS011;57451;52.496;13.456;2023-08-12T05:46:46;7.10;;;5.00;;
70078;SDS011;57451;52.496;13.456;2023-08-12T05:49:14;9.98;;;5.20;;
70078;SDS011;57451;52.496;13.456;2023-08-12T05:51:41;6.53;;;4.57;;
70078;SDS011;57451;52.496;13.456;2023-08-12T05:54:09;6.93;;;4.72;;
70078;SDS011;57451;52.496;13.456;2023-08-12T05:56:36;8.07;;;5.00;;
70078;SDS011;57451;52.496;13.456;2023-08-12T05:59:05;7.72;;;4.60;;
70078;SDS011;57451;52.496;13.456;2023-08-12T06:01:32;10.10;;;4.90;;
70078;SDS011;57451;52.496;13.456;2023-08-12T06:04:00;11.10;;;5.00;;
70078;SDS011;57451;52.496;13.456;2023-08-12T06:06:27;8.35;;;4.68;;
70078;SDS011;57451;52.496;13.456;2023-08-12T06:08:54;8.32;;;4.50;;
70078;SDS011;57451;52.496;13.456;2023-08-12T06:11:22;7.30;;;4.70;;
70078;SDS011;57451;52.496;13.456;2023-08-12T06:13:49;6.95;;;4.82;;
70078;SDS011;57451;52.496;13.456;2023-08-12T06:16:18;8.40;;;4.57;;
70078;SDS011;57451;52.496;13.456;2023-08-12T06:18:45;5.78;;;4.82;;
70078;SDS011;57451;52.496;13.456;2023-08-12T06:21:13;7.15;;;4.80;;
70078;SDS011;57451;52.496;13.456;2023-08-12T06:23:40;8.18;;;5.18;;
70078;SDS011;57451;52.496;13.456;2023-08-12T06:26:08;8.20;;;5.10;;
70078;SDS011;57451;52.496;13.456;2023-08-12T06:28:35;6.50;;;4.90;;
70078;SDS011;57451;52.496;13.456;2023-08-12T06:31:02;6.07;;;4.55;;
70078;SDS011;57451;52.496;13.456;2023-08-12T06:33:31;7.53;;;4.72;;
70078;SDS011;57451;52.496;13.456;2023-08-12T06:35:58;7.25;;;4.60;;
70078;SDS011;57451;52.496;13.456;2023-08-12T06:38:26;7.00;;;4.47;;
70078;SDS011;57451;52.496;13.456;2023-08-12T06:40:54;7.37;;;4.97;;
70078;SDS011;57451;52.496;13.456;2023-08-12T06:43:21;6.28;;;4.85;;
70078;SDS011;57451;52.496;13.456;2023-08-12T06:45:48;7.20;;;4.80;;
70078;SDS011;57451;52.496;13.456;2023-08-12T06:48:16;6.70;;;4.97;;
70078;SDS011;57451;52.496;13.456;2023-08-12T06:50:45;9.38;;;4.88;;
70078;SDS011;57451;52.496;13.456;2023-08-12T06:53:12;8.90;;;4.90;;
70078;SDS011;57451;52.496;13.456;2023-08-12T06:55:43;8.10;;;5.07;;
70078;SDS011;57451;52.496;13.456;2023-08-12T06:58:11;6.88;;;4.72;;
70078;SDS011;57451;52.496;13.456;2023-08-12T07:00:38;7.85;;;4.85;;
70078;SDS011;57451;52.496;13.456;2023-08-12T07:03:06;7.40;;;4.82;;
70078;SDS011;57451;52.496;13.456;2023-08-12T07:05:33;6.67;;;4.57;;
70078;SDS011;57451;52.496;13.456;2023-08-12T07:08:02;7.53;;;4.60;;
70078;SDS011;57451;52.496;13.456;2023-08-12T07:10:30;7.65;;;4.82;;
70078;SDS011;57451;52.496;13.456;2023-08-12T07:12:57;8.02;;;5.18;;
70078;SDS011;57451;52.496;13.456;2023-08-12T07:15:25;9.02;;;4.70;;
70078;SDS011;57451;52.496;13.456;2023-08-12T07:17:52;8.83;;;4.77;;
70078;SDS011;57451;52.496;13.456;2023-08-12T07:20:19;7.32;;;5.03;;
70078;SDS011;57451;52.496;13.456;2023-08-12T07:22:47;6.75;;;4.80;;
70078;SDS011;57451;52.496;13.456;2023-08-12T07:25:15;8.00;;;5.10;;
70078;SDS011;57451;52.496;13.456;2023-08-12T07:27:43;8.75;;;4.70;;
70078;SDS011;57451;52.496;13.456;2023-08-12T07:30:11;7.03;;;4.90;;
70078;SDS011;57451;52.496;13.456;2023-08-12T07:32:38;7.65;;;5.00;;
70078;SDS011;57451;52.496;13.456;2023-08-12T07:35:06;7.82;;;5.00;;
70078;SDS011;57451;52.496;13.456;2023-08-12T07:37:34;6.22;;;4.45;;
70078;SDS011;57451;52.496;13.456;2023-08-12T07:40:02;8.10;;;5.05;;
70078;SDS011;57451;52.496;13.456;2023-08-12T07:42:31;8.03;;;4.70;;
70078;SDS011;57451;52.496;13.456;2023-08-12T07:44:58;8.27;;;4.95;;
70078;SDS011;57451;52.496;13.456;2023-08-12T07:47:26;6.97;;;5.03;;
70078;SDS011;57451;52.496;13.456;2023-08-12T07:49:53;8.07;;;5.00;;
70078;SDS011;57451;52.496;13.456;2023-08-12T07:52:20;8.40;;;4.60;;
70078;SDS011;57451;52.496;13.456;2023-08-12T07:54:48;7.20;;;4.97;;
70078;SDS011;57451;52.496;13.456;2023-08-12T07:57:15;7.97;;;4.75;;
70078;SDS011;57451;52.496;13.456;2023-08-12T07:59:44;8.30;;;5.30;;
70078;SDS011;57451;52.496;13.456;2023-08-12T08:02:11;7.97;;;5.03;;
70078;SDS011;57451;52.496;13.456;2023-08-12T08:04:39;7.20;;;5.10;;
70078;SDS011;57451;52.496;13.456;2023-08-12T08:07:06;7.80;;;5.17;;
70078;SDS011;57451;52.496;13.456;2023-08-12T08:09:34;7.75;;;5.20;;
70078;SDS011;57451;52.496;13.456;2023-08-12T08:12:01;10.10;;;5.07;;
70078;SDS011;57451;52.496;13.456;2023-08-12T08:14:29;13.15;;;5.20;;
70078;SDS011;57451;52.496;13.456;2023-08-12T08:16:57;8.68;;;5.05;;
70078;SDS011;57451;52.496;13.456;2023-08-12T08:19:25;9.60;;;5.20;;
70078;SDS011;57451;52.496;13.456;2023-08-12T08:21:56;9.10;;;5.25;;
70078;SDS011;57451;52.496;13.456;2023-08-12T08:24:24;8.07;;;5.30;;
70078;SDS011;57451;52.496;13.456;2023-08-12T08:26:51;7.80;;;5.20;;
70078;SDS011;57451;52.496;13.456;2023-08-12T08:29:18;6.88;;;5.05;;
70078;SDS011;57451;52.496;13.456;2023-08-12T08:31:46;7.13;;;5.20;;
70078;SDS011;57451;52.496;13.456;2023-08-12T08:34:15;8.40;;;4.80;;
70078;SDS011;57451;52.496;13.456;2023-08-12T08:36:42;7.90;;;4.93;;
70078;SDS011;57451;52.496;13.456;2023-08-12T08:39:10;10.65;;;5.35;;
70078;SDS011;57451;52.496;13.456;2023-08-12T08:41:38;8.10;;;5.32;;
70078;SDS011;57451;52.496;13.456;2023-08-12T08:44:07;8.00;;;5.13;;
70078;SDS011;57451;52.496;13.456;2023-08-12T08:46:35;9.98;;;5.50;;
70078;SDS011;57451;52.496;13.456;2023-08-12T08:49:04;6.40;;;5.00;;
70078;SDS011;57451;52.496;13.456;2023-08-12T08:51:34;8.18;;;5.15;;
70078;SDS011;57451;52.496;13.456;2023-08-12T08:54:01;7.63;;;5.65;;
70078;SDS011;57451;52.496;13.456;2023-08-12T08:56:31;7.43;;;5.40;;
70078;SDS011;57451;52.496;13.456;2023-08-12T08:59:00;8.43;;;5.70;;
70078;SDS011;57451;52.496;13.456;2023-08-12T09:01:28;7.15;;;5.28;;
70078;SDS011;57451;52.496;13.456;2023-08-12T09:03:56;8.63;;;6.18;;
70078;SDS011;57451;52.496;13.456;2023-08-12T09:06:25;10.02;;;6.35;;
70078;SDS011;57451;52.496;13.456;2023-08-12T09:08:55;11.27;;;6.20;;
70078;SDS011;57451;52.496;13.456;2023-08-12T09:11:23;10.32;;;6.40;;
70078;SDS011;57451;52.496;13.456;2023-08-12T09:13:51;8.75;;;5.93;;
70078;SDS011;57451;52.496;13.456;2023-08-12T09:16:19;10.38;;;6.18;;
70078;SDS011;57451;52.496;13.456;2023-08-12T09:18:47;8.48;;;5.80;;
70078;SDS011;57451;52.496;13.456;2023-08-12T09:21:20;7.57;;;5.37;;
70078;SDS011;57451;52.496;13.456;2023-08-12T09:23:48;8.60;;;5.25;;
70078;SDS011;57451;52.496;13.456;2023-08-12T09:26:17;9.25;;;5.55;;
70078;SDS011;57451;52.496;13.456;2023-08-12T09:28:45;7.88;;;5.40;;
70078;SDS011;57451;52.496;13.456;2023-08-12T09:31:21;7.38;;;5.50;;
70078;SDS011;57451;52.496;13.456;2023-08-12T09:33:50;8.87;;;5.60;;
70078;SDS011;57451;52.496;13.456;2023-08-12T09:36:18;9.23;;;5.78;;
70078;SDS011;57451;52.496;13.456;2023-08-12T09:38:47;9.25;;;5.95;;
70078;SDS011;57451;52.496;13.456;2023-08-12T09:41:15;9.80;;;5.80;;
70078;SDS011;57451;52.496;13.456;2023-08-12T09:43:44;10.13;;;5.60;;
70078;SDS011;57451;52.496;13.456;2023-08-12T09:46:11;7.00;;;5.37;;
70078;SDS011;57451;52.496;13.456;2023-08-12T09:48:42;7.63;;;5.70;;
70078;SDS011;57451;52.496;13.456;2023-08-12T09:51:10;7.60;;;5.40;;
70078;SDS011;57451;52.496;13.456;2023-08-12T09:53:37;7.85;;;5.53;;
70078;SDS011;57451;52.496;13.456;2023-08-12T09:56:05;6.85;;;5.15;;
70078;SDS011;57451;52.496;13.456;2023-08-12T09:58:36;6.90;;;5.50;;
70078;SDS011;57451;52.496;13.456;2023-08-12T10:01:04;8.80;;;5.65;;
70078;SDS011;57451;52.496;13.456;2023-08-12T10:03:34;7.03;;;5.50;;
70078;SDS011;57451;52.496;13.456;2023-08-12T10:06:02;8.43;;;5.50;;
70078;SDS011;57451;52.496;13.456;2023-08-12T10:08:30;9.23;;;5.78;;
70078;SDS011;57451;52.496;13.456;2023-08-12T10:10:59;7.87;;;5.70;;
70078;SDS011;57451;52.496;13.456;2023-08-12T10:13:40;8.73;;;5.93;;
70078;SDS011;57451;52.496;13.456;2023-08-12T10:16:08;7.72;;;5.80;;
70078;SDS011;57451;52.496;13.456;2023-08-12T10:18:37;6.93;;;5.22;;
70078;SDS011;57451;52.496;13.456;2023-08-12T10:21:08;8.90;;;6.07;;
70078;SDS011;57451;52.496;13.456;2023-08-12T10:23:37;7.80;;;6.20;;
70078;SDS011;57451;52.496;13.456;2023-08-12T10:26:05;8.20;;;5.72;;
70078;SDS011;57451;52.496;13.456;2023-08-12T10:28:33;10.20;;;6.80;;
70078;SDS011;57451;52.496;13.456;2023-08-12T10:31:05;7.20;;;6.13;;
70078;SDS011;57451;52.496;13.456;2023-08-12T10:33:37;8.57;;;6.13;;
70078;SDS011;57451;52.496;13.456;2023-08-12T10:36:05;8.43;;;6.10;;
70078;SDS011;57451;52.496;13.456;2023-08-12T10:38:32;9.20;;;6.50;;
70078;SDS011;57451;52.496;13.456;2023-08-12T10:41:16;11.98;;;6.40;;
70078;SDS011;57451;52.496;13.456;2023-08-12T10:43:48;9.45;;;6.32;;
70078;SDS011;57451;52.496;13.456;2023-08-12T10:46:22;7.97;;;6.40;;
70078;SDS011;57451;52.496;13.456;2023-08-12T10:48:57;9.07;;;6.70;;
70078;SDS011;57451;52.496;13.456;2023-08-12T10:51:44;9.32;;;6.05;;
70078;SDS011;57451;52.496;13.456;2023-08-12T10:54:13;9.23;;;6.75;;
70078;SDS011;57451;52.496;13.456;2023-08-12T10:57:04;8.48;;;6.22;;
70078;SDS011;57451;52.496;13.456;2023-08-12T10:59:48;10.05;;;6.40;;
70078;SDS011;57451;52.496;13.456;2023-08-12T11:02:19;9.33;;;6.50;;
70078;SDS011;57451;52.496;13.456;2023-08-12T11:04:49;8.65;;;6.50;;
70078;SDS011;57451;52.496;13.456;2023-08-12T11:07:19;9.40;;;6.72;;
70078;SDS011;57451;52.496;13.456;2023-08-12T11:09:50;8.43;;;6.28;;
70078;SDS011;57451;52.496;13.456;2023-08-12T11:12:27;9.75;;;6.45;;
70078;SDS011;57451;52.496;13.456;2023-08-12T11:14:58;9.37;;;6.43;;
70078;SDS011;57451;52.496;13.456;2023-08-12T11:17:29;8.40;;;6.45;;
70078;SDS011;57451;52.496;13.456;2023-08-12T11:20:00;9.02;;;6.80;;
70078;SDS011;57451;52.496;13.456;2023-08-12T11:22:31;9.35;;;6.88;;
70078;SDS011;57451;52.496;13.456;2023-08-12T11:25:00;7.68;;;6.18;;
70078;SDS011;57451;52.496;13.456;2023-08-12T11:27:28;7.20;;;6.23;;
70078;SDS011;57451;52.496;13.456;2023-08-12T11:30:03;6.88;;;5.70;;
70078;SDS011;57451;52.496;13.456;2023-08-12T11:32:34;7.22;;;5.70;;
70078;SDS011;57451;52.496;13.456;2023-08-12T11:35:01;7.35;;;5.30;;
70078;SDS011;57451;52.496;13.456;2023-08-12T11:37:30;7.13;;;5.32;;
70078;SDS011;57451;52.496;13.456;2023-08-12T11:39:58;7.07;;;5.37;;
70078;SDS011;57451;52.496;13.456;2023-08-12T11:42:25;6.53;;;5.03;;
70078;SDS011;57451;52.496;13.456;2023-08-12T11:44:52;6.60;;;4.95;;
70078;SDS011;57451;52.496;13.456;2023-08-12T11:47:20;6.53;;;4.95;;
70078;SDS011;57451;52.496;13.456;2023-08-12T11:49:49;6.93;;;4.53;;
70078;SDS011;57451;52.496;13.456;2023-08-12T11:52:18;5.80;;;4.67;;
70078;SDS011;57451;52.496;13.456;2023-08-12T11:54:45;7.03;;;5.05;;
70078;SDS011;57451;52.496;13.456;2023-08-12T11:57:13;7.38;;;4.85;;
70078;SDS011;57451;52.496;13.456;2023-08-12T11:59:40;6.40;;;4.95;;
70078;SDS011;57451;52.496;13.456;2023-08-12T12:02:07;7.30;;;4.78;;
70078;SDS011;57451;52.496;13.456;2023-08-12T12:04:37;7.70;;;5.00;;
70078;SDS011;57451;52.496;13.456;2023-08-12T12:07:17;6.93;;;4.75;;
70078;SDS011;57451;52.496;13.456;2023-08-12T12:09:46;7.50;;;5.00;;
70078;SDS011;57451;52.496;13.456;2023-08-12T12:12:13;7.32;;;4.80;;
70078;SDS011;57451;52.496;13.456;2023-08-12T12:14:41;8.63;;;4.97;;
70078;SDS011;57451;52.496;13.456;2023-08-12T12:17:08;6.90;;;5.33;;
70078;SDS011;57451;52.496;13.456;2023-08-12T12:19:37;7.07;;;5.38;;
70078;SDS011;57451;52.496;13.456;2023-08-12T12:22:07;8.02;;;5.50;;
70078;SDS011;57451;52.496;13.456;2023-08-12T12:24:44;7.00;;;5.35;;
70078;SDS011;57451;52.496;13.456;2023-08-12T12:27:15;11.15;;;5.03;;
70078;SDS011;57451;52.496;13.456;2023-08-12T12:29:43;7.70;;;5.47;;
70078;SDS011;57451;52.496;13.456;2023-08-12T12:32:10;8.27;;;5.82;;
70078;SDS011;57451;52.496;13.456;2023-08-12T12:34:38;8.32;;;5.53;;
70078;SDS011;57451;52.496;13.456;2023-08-12T12:37:05;7.43;;;5.15;;
70078;SDS011;57451;52.496;13.456;2023-08-12T12:39:33;7.00;;;4.80;;
70078;SDS011;57451;52.496;13.456;2023-08-12T12:42:02;7.87;;;5.20;;
70078;SDS011;57451;52.496;13.456;2023-08-12T12:44:30;7.28;;;5.35;;
70078;SDS011;57451;52.496;13.456;2023-08-12T12:46:57;7.82;;;5.47;;
70078;SDS011;57451;52.496;13.456;2023-08-12T12:49:24;8.43;;;5.40;;
70078;SDS011;57451;52.496;13.456;2023-08-12T12:51:52;7.45;;;5.15;;
70078;SDS011;57451;52.496;13.456;2023-08-12T12:54:19;7.83;;;5.60;;
70078;SDS011;57451;52.496;13.456;2023-08-12T12:56:46;8.57;;;5.53;;
70078;SDS011;57451;52.496;13.456;2023-08-12T12:59:15;7.03;;;5.32;;
70078;SDS011;57451;52.496;13.456;2023-08-12T13:01:44;7.03;;;5.40;;
70078;SDS011;57451;52.496;13.456;2023-08-12T13:04:11;7.13;;;5.57;;
70078;SDS011;57451;52.496;13.456;2023-08-12T13:06:39;7.43;;;5.57;;
70078;SDS011;57451;52.496;13.456;2023-08-12T13:09:06;7.95;;;5.68;;
70078;SDS011;57451;52.496;13.456;2023-08-12T13:11:34;8.25;;;5.15;;
70078;SDS011;57451;52.496;13.456;2023-08-12T13:14:02;8.75;;;6.05;;
70078;SDS011;57451;52.496;13.456;2023-08-12T13:16:31;8.13;;;5.63;;
70078;SDS011;57451;52.496;13.456;2023-08-12T13:18:59;8.60;;;5.70;;
70078;SDS011;57451;52.496;13.456;2023-08-12T13:21:26;8.38;;;5.65;;
70078;SDS011;57451;52.496;13.456;2023-08-12T13:23:54;7.75;;;5.95;;
70078;SDS011;57451;52.496;13.456;2023-08-12T13:26:24;7.38;;;5.55;;
70078;SDS011;57451;52.496;13.456;2023-08-12T13:28:53;6.25;;;5.18;;
70078;SDS011;57451;52.496;13.456;2023-08-12T13:31:20;7.40;;;5.50;;
70078;SDS011;57451;52.496;13.456;2023-08-12T13:33:49;9.07;;;5.43;;
70078;SDS011;57451;52.496;13.456;2023-08-12T13:36:16;7.50;;;5.40;;
70078;SDS011;57451;52.496;13.456;2023-08-12T13:38:44;7.15;;;4.85;;
70078;SDS011;57451;52.496;13.456;2023-08-12T13:41:11;7.15;;;4.90;;
70078;SDS011;57451;52.496;13.456;2023-08-12T13:43:39;6.87;;;5.40;;
70078;SDS011;57451;52.496;13.456;2023-08-12T13:46:06;7.20;;;5.15;;
70078;SDS011;57451;52.496;13.456;2023-08-12T13:48:33;7.05;;;5.15;;
70078;SDS011;57451;52.496;13.456;2023-08-12T13:51:02;8.35;;;5.10;;
70078;SDS011;57451;52.496;13.456;2023-08-12T13:53:30;6.55;;;5.00;;
70078;SDS011;57451;52.496;13.456;2023-08-12T13:55:58;5.73;;;4.97;;
70078;SDS011;57451;52.496;13.456;2023-08-12T13:58:25;6.53;;;4.80;;
70078;SDS011;57451;52.496;13.456;2023-08-12T14:00:52;6.20;;;4.78;;
70078;SDS011;57451;52.496;13.456;2023-08-12T14:03:20;8.85;;;5.10;;
70078;SDS011;57451;52.496;13.456;2023-08-12T14:05:47;5.82;;;4.70;;
70078;SDS011;57451;52.496;13.456;2023-08-12T14:08:16;6.40;;;4.70;;
70078;SDS011;57451;52.496;13.456;2023-08-12T14:10:45;6.45;;;4.25;;
70078;SDS011;57451;52.496;13.456;2023-08-12T14:13:12;9.52;;;4.50;;
70078;SDS011;57451;52.496;13.456;2023-08-12T14:15:40;9.23;;;4.25;;
70078;SDS011;57451;52.496;13.456;2023-08-12T14:18:07;6.00;;;4.10;;
70078;SDS011;57451;52.496;13.456;2023-08-12T14:20:35;6.47;;;4.40;;
70078;SDS011;57451;52.496;13.456;2023-08-12T14:23:02;5.57;;;4.35;;
70078;SDS011;57451;52.496;13.456;2023-08-12T14:25:31;5.57;;;3.72;;
70078;SDS011;57451;52.496;13.456;2023-08-12T14:27:58;5.80;;;4.03;;
70078;SDS011;57451;52.496;13.456;2023-08-12T14:30:26;5.13;;;3.90;;
70078;SDS011;57451;52.496;13.456;2023-08-12T14:32:53;6.57;;;4.40;;
70078;SDS011;57451;52.496;13.456;2023-08-12T14:35:21;6.05;;;3.90;;
70078;SDS011;57451;52.496;13.456;2023-08-12T14:37:48;5.80;;;4.20;;
70078;SDS011;57451;52.496;13.456;2023-08-12T14:40:16;6.97;;;4.13;;